Kanawha Falls, West Virginia
Current Conditions -  °F | °C
As of 2:51 AM on Sunday 26 Oct 2014 (Local Time) from KBKW Reporting Station
Clear Clear  
Wind Chill: 58°   Ceiling: Unl
Heat Index: 58°   Visibility: 10mi
Dew Point: 51°   Wind: 14mph
Humidity: 78%   Direction: 300°WNW
Pressure: 29.91"   Gusts: 22mph
Location:  38.14°N, 81.21°W
Report Text: KBKW 260651Z AUTO 30012G19KT 10SM CLR 14/11 A2991 RMK AO2 SLP110 T01440106 TSNO
Loading
Personal Weather Stations






























Interactive Weather Map New forecast layout! Learn more

10-Day Weather Forecast

Advertisements
Track Severe Weather on mobile